Portada
METAR-TAF:

METAR-TAF

Aeroports :

Orenburg, Rússia

latitud: 51-46-48N, longitud: 055-07-12E, altitud: 109 m

Observació

L'informe es va fer fa 18 minuts, a les 15:00 UTC
Vent 8 kt del Nord/Nord-Oest
Temperatura -8°C
Humitat 79%
Pressió 1039 hPa
Visibilitat 10 km o més
Cel cobert a una alçada de 2800 ft

METAR: UWOO 221500Z 33004MPS 9999 OVC028 M08/M11 Q1039 R26/820154 NOSIG RMK QFE768/1025

Hora: 20:18 (15:18 UTC)

Pronòstic

L'informe es va fer fa 1 hora i 27 minuts, a les 13:51 UTC
Pronòstic vàlid del 22 a les 15 UTC al 23 a les 15 UTC
Vent 6 kt del Nord-Oest amb ràfegues de 16 kt
Visibilitat: 3100 m
Cel cobert a una alçada de 1100 ft
boirina
Temporalment
l' 22 a les 15 UTC al 23 a les 06 UTC
Vent 12 kt del Nord
Visibilitat: 0400 m
a una alçada de 300 ft
(lleu) Cinarra, boira gebradora

TAF: UWOO 221351Z 2215/2315 32003G08MPS 3100 BR OVC011 TXM06/2309Z TNM12/2303Z TEMPO 2215/2306 35006MPS 0400 -SG FZFG VV003

Observacions i pronòstics meteorològics de més de 4000 aeroports (METAR i TAF).

Les estacions disponibles són els punts grocs i vermells al mapa.

Posi el ratolí al punt desitjat per veure el nom de l'estació.

Feu clic per veure les observacions i els pronòstics meteorològics.

Per canviar el mapa: feu clic els botons verds amb una creu de color negre per apropar; al botó verd amb un guió per allunyar la imatge; o en les fletxes verdes per a mapes adjacents.


METAR-TAF: